This is the latest recevied weather packets stored in our database for station/object I2HLY-3. If no packets are shown the sender has not sent any weather packets the latest 10 day(s).
| Time | Temp. | Humidity | Pressure | Rain* | Wind** | Luminosity | Snow |
|---|---|---|---|---|---|---|---|
| 1778189548 | 11.67° C | 91% | 1012.6 hPa | 0 mm | - | - | - |
| 1778188647 | 11.67° C | 91% | 1012.6 hPa | 0 mm | - | - | - |
| 1778187746 | 11.67° C | 90% | 1012.5 hPa | 0 mm | - | - | - |
| 1778186848 | 12.22° C | 90% | 1012.2 hPa | 0 mm | - | - | - |
| 1778185953 | 12.22° C | 89% | 1012.4 hPa | 0 mm | - | - | - |
| 1778185053 | 12.78° C | 87% | 1012.1 hPa | 0 mm | - | - | - |
| 1778184136 | 12.78° C | 85% | 1011.9 hPa | 0 mm | - | - | - |
| 1778182342 | 13.89° C | 80% | 1011.4 hPa | 0 mm | - | - | - |
| 1778181444 | 15° C | 77% | 1011.2 hPa | 0 mm | - | - | - |
| 1778180550 | 16.11° C | 72% | 1011 hPa | 0 mm | - | - | - |
| 1778179651 | 17.22° C | 68% | 1010.9 hPa | 0 mm | - | - | - |
| 1778178750 | 18.33° C | 60% | 1010.8 hPa | 0 mm | - | - | - |
| 1778177835 | 19.44° C | 57% | 1010.7 hPa | 0 mm | - | - | - |
| 1778176938 | 20.56° C | 51% | 1010.5 hPa | 0 mm | - | - | - |
| 1778176041 | 21.67° C | 49% | 1010.3 hPa | 0 mm | - | - | - |
| 1778175148 | 22.22° C | 47% | 1010.2 hPa | 0 mm | - | - | - |
| 1778174250 | 22.22° C | 48% | 1010.1 hPa | 0 mm | - | - | - |
| 1778173350 | 22.22° C | 46% | 1010.1 hPa | 0 mm | - | - | - |
| 1778172437 | 22.22° C | 44% | 1010 hPa | 0 mm | - | - | - |
| 1778171539 | 22.22° C | 47% | 1009.9 hPa | 0 mm | - | - | - |
| 1778170639 | 21.67° C | 48% | 1009.9 hPa | 0 mm | - | - | - |
| 1778169743 | 21.67° C | 47% | 1010 hPa | 0 mm | - | - | - |
| 1778168842 | 21.67° C | 49% | 1010 hPa | 0 mm | - | - | - |
| 1778167943 | 21.67° C | 47% | 1010 hPa | 0 mm | - | - | - |
| 1778167041 | 21.67° C | 49% | 1010 hPa | 0 mm | - | - | - |
* Rain latest hour (hover to see other rain measurements)
** Current wind speed in m/s (hover to see current wind gust speed)